Time,TemperatureF,DewpointF,PressureIn,WindDirection,WindDirectionDegrees,WindSpeedMPH,WindSpeedGustMPH,Humidity,HourlyPrecipIn,Conditions,Clouds,dailyrainin,SolarRadiationWatts/m^2,SoftwareType,DateUTC
2013-03-18 00:00:00,49.5,47.0,30.03,SSW,202,5.4,8.5,91,0.00,,,0.00,0.00,VWS V14.01,2013-03-18 07:00:00,
2013-03-18 00:02:00,49.5,47.0,30.03,South,180,3.4,8.5,91,0.00,,,0.00,0.00,VWS V14.01,2013-03-18 07:02:00,
2013-03-18 00:07:00,49.5,47.2,30.03,South,180,2.5,8.5,92,0.00,,,0.00,0.00,VWS V14.01,2013-03-18 07:07:00,
2013-03-18 00:12:00,49.5,47.5,30.03,SSW,202,3.8,8.5,93,0.00,,,0.00,0.00,VWS V14.01,2013-03-18 07:12:00,
2013-03-18 00:15:00,49.3,47.1,30.03,SSE,158,2.0,8.5,92,0.00,,,0.00,0.00,VWS V14.01,2013-03-18 07:15:00,
2013-03-18 00:17:00,49.5,46.7,30.03,SW,225,2.2,6.0,90,0.00,,,0.00,0.00,VWS V14.01,2013-03-18 07:17:00,
2013-03-18 00:22:00,49.3,45.6,30.03,SSW,202,2.7,6.0,87,0.00,,,0.00,0.00,VWS V14.01,2013-03-18 07:22:00,
2013-03-18 00:27:00,48.9,45.5,30.03,SSW,202,2.0,6.0,88,0.00,,,0.00,0.00,VWS V14.01,2013-03-18 07:27:00,
2013-03-18 00:30:00,48.7,45.7,30.03,South,180,1.6,6.0,89,0.00,,,0.00,0.00,VWS V14.01,2013-03-18 07:30:00,
2013-03-18 00:33:00,48.7,45.7,30.03,SSW,202,2.9,3.1,89,0.00,,,0.00,0.00,VWS V14.01,2013-03-18 07:33:00,
2013-03-18 00:38:00,48.7,45.3,30.03,SW,225,0.0,3.1,88,0.00,,,0.00,0.00,VWS V14.01,2013-03-18 07:38:00,
2013-03-18 00:43:00,48.2,44.8,30.03,SSW,202,2.5,3.1,88,0.00,,,0.00,0.00,VWS V14.01,2013-03-18 07:43:00,
2013-03-18 00:45:00,48.2,45.4,30.03,SSW,202,2.2,3.1,90,0.00,,,0.00,0.00,VWS V14.01,2013-03-18 07:45:00,
2013-03-18 00:48:00,47.8,45.3,30.03,SSW,202,2.0,2.7,91,0.00,,,0.00,0.00,VWS V14.01,2013-03-18 07:48:00,
2013-03-18 00:53:00,47.7,45.2,30.06,SSW,202,0.0,3.1,91,0.00,,,0.00,0.00,VWS V14.01,2013-03-18 07:53:00,
2013-03-18 00:58:00,47.5,45.0,30.06,SSW,202,2.7,3.1,91,0.00,,,0.00,0.00,VWS V14.01,2013-03-18 07:58:00,
2013-03-18 01:00:00,47.5,45.3,30.06,South,180,0.0,3.1,92,0.00,,,0.00,0.00,VWS V14.01,2013-03-18 08:00:00,
2013-03-18 01:03:00,47.3,45.1,30.06,South,180,0.0,2.0,92,0.00,,,0.00,0.00,VWS V14.01,2013-03-18 08:03:00,
2013-03-18 01:08:00,47.3,45.4,30.03,SSW,202,1.6,2.0,93,0.00,,,0.00,0.00,VWS V14.01,2013-03-18 08:08:00,
2013-03-18 01:13:00,47.5,45.0,30.03,SSW,202,0.0,2.5,91,0.00,,,0.00,0.00,VWS V14.01,2013-03-18 08:13:00,
2013-03-18 01:15:00,47.3,45.1,30.03,SSW,202,0.0,2.5,92,0.00,,,0.00,0.00,VWS V14.01,2013-03-18 08:15:00,
2013-03-18 01:19:00,47.3,45.4,30.03,SSW,202,0.0,2.0,93,0.00,,,0.00,0.00,VWS V14.01,2013-03-18 08:19:00,
2013-03-18 01:24:00,47.1,45.2,30.03,SSW,202,2.0,2.0,93,0.00,,,0.00,0.00,VWS V14.01,2013-03-18 08:24:00,
2013-03-18 01:29:00,47.1,45.5,30.03,SSW,202,2.2,2.7,94,0.00,,,0.00,0.00,VWS V14.01,2013-03-18 08:29:00,
2013-03-18 01:30:00,47.1,45.5,30.03,SSW,202,1.3,2.7,94,0.00,,,0.00,0.00,VWS V14.01,2013-03-18 08:30:00,
2013-03-18 01:34:00,47.1,45.5,30.03,South,180,2.0,2.9,94,0.00,,,0.00,0.00,VWS V14.01,2013-03-18 08:34:00,
2013-03-18 01:39:00,46.9,45.3,30.03,SSW,202,0.0,2.9,94,0.00,,,0.00,0.00,VWS V14.01,2013-03-18 08:39:00,
2013-03-18 01:45:00,46.6,45.0,30.03,SSW,202,0.0,2.9,94,0.00,,,0.00,0.00,VWS V14.01,2013-03-18 08:45:00,
2013-03-18 01:50:00,46.6,45.2,30.03,SSW,202,0.0,0.0,95,0.00,,,0.00,0.00,VWS V14.01,2013-03-18 08:50:00,
2013-03-18 01:55:00,46.4,45.0,30.03,SSW,202,0.0,0.0,95,0.00,,,0.00,0.00,VWS V14.01,2013-03-18 08:55:00,
2013-03-18 02:00:00,46.6,45.2,30.03,South,180,0.0,0.0,95,0.00,,,0.00,0.00,VWS V14.01,2013-03-18 09:00:00,
2013-03-18 02:05:00,46.4,45.0,30.03,South,180,0.0,0.0,95,0.00,,,0.00,0.00,VWS V14.01,2013-03-18 09:05:00,
2013-03-18 02:10:00,46.4,45.0,30.03,SSW,202,1.1,1.1,95,0.00,,,0.00,0.00,VWS V14.01,2013-03-18 09:10:00,
2013-03-18 02:15:00,46.4,45.3,30.03,SSW,202,0.0,0.0,96,0.00,,,0.00,0.00,VWS V14.01,2013-03-18 09:15:00,
2013-03-18 02:20:00,46.4,45.3,30.03,SSW,202,0.0,0.0,96,0.00,,,0.00,0.00,VWS V14.01,2013-03-18 09:20:00,
2013-03-18 02:25:00,46.4,45.6,30.03,SSW,202,1.3,1.3,97,0.00,,,0.00,0.00,VWS V14.01,2013-03-18 09:25:00,
2013-03-18 02:30:00,46.2,45.4,30.03,SSW,202,0.0,0.0,97,0.00,,,0.00,0.00,VWS V14.01,2013-03-18 09:30:00,
2013-03-18 02:35:00,46.0,45.2,30.03,SSW,202,0.0,0.0,97,0.00,,,0.00,0.00,VWS V14.01,2013-03-18 09:35:00,
2013-03-18 02:41:00,45.7,44.9,30.03,SSW,202,2.5,2.7,97,0.00,,,0.00,0.00,VWS V14.01,2013-03-18 09:41:00,
2013-03-18 02:45:00,45.9,45.1,30.03,SSW,202,2.5,2.7,97,0.00,,,0.00,0.00,VWS V14.01,2013-03-18 09:45:00,
2013-03-18 02:46:00,45.9,45.1,30.03,SSW,202,1.6,2.7,97,0.00,,,0.00,0.00,VWS V14.01,2013-03-18 09:46:00,
2013-03-18 02:51:00,45.7,44.9,30.03,SSW,202,0.0,2.7,97,0.00,,,0.00,0.00,VWS V14.01,2013-03-18 09:51:00,
2013-03-18 03:00:00,45.9,45.1,30.03,WSW,248,0.0,2.7,97,0.00,,,0.00,0.00,VWS V14.01,2013-03-18 10:00:00,
2013-03-18 03:15:00,48.0,48.0,30.03,South,180,2.0,5.4,100,0.00,,,0.00,0.00,VWS V14.01,2013-03-18 10:15:00,
2013-03-18 03:30:00,47.3,46.8,30.03,South,180,0.0,3.6,98,0.00,,,0.00,0.00,VWS V14.01,2013-03-18 10:30:00,
2013-03-18 03:45:00,46.2,45.7,30.00,South,180,0.0,0.0,98,0.00,,,0.00,0.00,VWS V14.01,2013-03-18 10:45:00,
2013-03-18 04:00:00,45.7,45.4,30.00,SSW,202,0.0,0.0,99,0.00,,,0.00,0.00,VWS V14.01,2013-03-18 11:00:00,
2013-03-18 04:15:00,45.1,45.1,30.00,SSW,202,0.0,2.5,100,0.00,,,0.00,0.00,VWS V14.01,2013-03-18 11:15:00,
2013-03-18 04:30:00,45.1,45.1,30.00,South,180,0.0,1.1,100,0.00,,,0.00,0.00,VWS V14.01,2013-03-18 11:30:00,
2013-03-18 04:45:00,45.1,45.1,30.00,South,180,0.0,0.0,100,0.00,,,0.00,0.00,VWS V14.01,2013-03-18 11:45:00,
2013-03-18 05:00:00,45.3,45.3,30.00,South,180,0.0,0.9,100,0.00,,,0.00,0.00,VWS V14.01,2013-03-18 12:00:00,
2013-03-18 05:15:00,45.3,45.3,30.00,SSW,202,0.0,0.0,100,0.00,,,0.00,0.00,VWS V14.01,2013-03-18 12:15:00,
2013-03-18 05:30:00,45.1,45.1,30.00,SSE,158,0.0,1.6,100,0.00,,,0.00,0.00,VWS V14.01,2013-03-18 12:30:00,
2013-03-18 05:45:00,45.3,45.3,30.00,South,180,0.0,2.9,100,0.00,,,0.00,0.00,VWS V14.01,2013-03-18 12:45:00,
2013-03-18 06:00:00,45.3,45.3,30.00,South,180,0.0,0.0,100,0.00,,,0.00,0.00,VWS V14.01,2013-03-18 13:00:00,
2013-03-18 06:15:00,45.1,45.1,30.00,South,180,0.0,0.0,100,0.00,,,0.00,0.00,VWS V14.01,2013-03-18 13:15:00,
2013-03-18 06:30:00,45.0,45.0,30.00,South,180,0.0,0.0,100,0.00,,,0.00,0.00,VWS V14.01,2013-03-18 13:30:00,
2013-03-18 06:34:00,45.0,45.0,30.00,South,180,0.0,0.0,100,0.00,,,0.00,0.00,VWS V14.01,2013-03-18 13:34:00,
2013-03-18 06:39:00,44.8,44.8,30.00,South,180,0.0,0.0,100,0.00,,,0.00,0.00,VWS V14.01,2013-03-18 13:39:00,
2013-03-18 06:44:00,44.8,44.8,30.00,South,180,0.0,0.0,100,0.00,,,0.00,0.00,VWS V14.01,2013-03-18 13:44:00,
2013-03-18 06:45:00,44.8,44.8,30.00,South,180,0.0,0.0,100,0.00,,,0.00,0.00,VWS V14.01,2013-03-18 13:45:00,
2013-03-18 06:49:00,44.8,44.8,30.00,South,180,1.6,2.0,100,0.00,,,0.00,0.00,VWS V14.01,2013-03-18 13:49:00,
2013-03-18 06:54:00,44.8,44.8,30.00,South,180,0.0,2.2,100,0.00,,,0.00,0.00,VWS V14.01,2013-03-18 13:54:00,
2013-03-18 06:59:00,45.1,45.1,30.00,South,180,0.0,2.2,100,0.00,,,0.00,0.00,VWS V14.01,2013-03-18 13:59:00,
2013-03-18 07:00:00,45.1,45.1,30.00,South,180,0.0,2.2,100,0.00,,,0.00,0.00,VWS V14.01,2013-03-18 14:00:00,
2013-03-18 07:05:00,45.0,45.0,30.00,South,180,0.0,0.0,100,0.00,,,0.00,0.00,VWS V14.01,2013-03-18 14:05:00,
2013-03-18 07:10:00,45.0,45.0,30.03,South,180,0.0,0.9,100,0.00,,,0.00,0.00,VWS V14.01,2013-03-18 14:10:00,
2013-03-18 07:15:00,44.8,44.8,30.03,South,180,0.0,0.0,100,0.00,,,0.00,0.00,VWS V14.01,2013-03-18 14:15:00,
2013-03-18 07:20:00,44.6,44.6,30.03,South,180,0.0,1.6,100,0.00,,,0.00,0.00,VWS V14.01,2013-03-18 14:20:00,
2013-03-18 07:25:00,44.8,44.8,30.03,South,180,0.0,1.6,100,0.00,,,0.00,0.00,VWS V14.01,2013-03-18 14:25:00,
2013-03-18 07:30:00,44.8,44.8,30.03,South,180,0.0,1.6,100,0.00,,,0.00,0.00,VWS V14.01,2013-03-18 14:30:00,
2013-03-18 07:31:00,44.8,44.8,30.03,South,180,0.0,0.0,100,0.00,,,0.00,0.00,VWS V14.01,2013-03-18 14:31:00,
2013-03-18 07:36:00,45.0,45.0,30.03,SSW,202,0.0,0.9,100,0.00,,,0.00,0.00,VWS V14.01,2013-03-18 14:36:00,
2013-03-18 07:41:00,45.1,45.1,30.03,South,180,0.0,0.9,100,0.00,,,0.00,0.00,VWS V14.01,2013-03-18 14:41:00,
2013-03-18 07:45:00,45.1,45.1,30.03,SSW,202,0.0,0.9,100,0.00,,,0.00,0.00,VWS V14.01,2013-03-18 14:45:00,
2013-03-18 07:46:00,45.1,45.1,30.03,SSW,202,0.0,0.0,100,0.00,,,0.00,0.00,VWS V14.01,2013-03-18 14:46:00,
2013-03-18 07:51:00,45.5,45.5,30.03,SSW,202,0.0,0.0,100,0.00,,,0.00,0.00,VWS V14.01,2013-03-18 14:51:00,
2013-03-18 07:57:00,45.9,45.9,30.03,SSW,202,0.0,0.0,100,0.00,,,0.00,0.00,VWS V14.01,2013-03-18 14:57:00,
2013-03-18 08:00:00,45.9,45.9,30.03,SSW,202,0.0,0.0,100,0.00,,,0.00,0.00,VWS V14.01,2013-03-18 15:00:00,
2013-03-18 08:02:00,46.0,46.0,30.03,SSW,202,0.0,0.0,100,0.00,,,0.00,0.00,VWS V14.01,2013-03-18 15:02:00,
2013-03-18 08:07:00,46.2,46.2,30.03,South,180,0.0,0.0,100,0.00,,,0.00,0.00,VWS V14.01,2013-03-18 15:07:00,
2013-03-18 08:12:00,46.6,46.6,30.03,SSW,202,0.0,0.0,100,0.00,,,0.00,0.00,VWS V14.01,2013-03-18 15:12:00,
2013-03-18 08:15:00,46.6,46.6,30.03,West,270,0.0,0.0,100,0.00,,,0.00,0.00,VWS V14.01,2013-03-18 15:15:00,
2013-03-18 08:17:00,46.9,46.9,30.03,SW,225,0.0,0.0,100,0.00,,,0.00,0.00,VWS V14.01,2013-03-18 15:17:00,
2013-03-18 08:22:00,47.3,47.3,30.03,SSW,202,0.0,0.0,100,0.00,,,0.00,0.00,VWS V14.01,2013-03-18 15:22:00,
2013-03-18 08:27:00,47.7,47.7,30.03,East,90,0.0,0.0,100,0.00,,,0.00,0.00,VWS V14.01,2013-03-18 15:27:00,
2013-03-18 08:30:00,47.7,47.7,30.03,East,90,0.0,0.0,100,0.00,,,0.00,0.00,VWS V14.01,2013-03-18 15:30:00,
2013-03-18 08:33:00,47.7,47.7,30.03,East,90,0.0,0.0,100,0.00,,,0.00,0.00,VWS V14.01,2013-03-18 15:33:00,
2013-03-18 08:38:00,48.0,48.0,30.03,East,90,0.0,0.0,100,0.00,,,0.00,0.00,VWS V14.01,2013-03-18 15:38:00,
2013-03-18 08:43:00,48.2,48.2,30.03,ENE,68,0.0,0.0,100,0.00,,,0.00,0.00,VWS V14.01,2013-03-18 15:43:00,
2013-03-18 08:45:00,48.2,48.2,30.03,ENE,68,0.0,0.0,100,0.00,,,0.00,0.00,VWS V14.01,2013-03-18 15:45:00,
2013-03-18 08:48:00,48.2,48.2,30.03,ENE,68,0.0,0.0,100,0.00,,,0.00,0.00,VWS V14.01,2013-03-18 15:48:00,
2013-03-18 08:53:00,48.9,48.9,30.03,ENE,68,0.0,0.0,100,0.00,,,0.00,0.00,VWS V14.01,2013-03-18 15:53:00,
2013-03-18 08:58:00,49.3,49.3,30.03,ENE,68,0.0,0.0,100,0.00,,,0.00,0.00,VWS V14.01,2013-03-18 15:58:00,
2013-03-18 09:00:00,49.3,49.3,30.03,ENE,68,0.0,0.0,100,0.00,,,0.00,0.00,VWS V14.01,2013-03-18 16:00:00,
2013-03-18 09:03:00,49.6,49.6,30.03,ENE,68,0.0,0.0,100,0.00,,,0.00,0.00,VWS V14.01,2013-03-18 16:03:00,
2013-03-18 09:08:00,50.4,50.4,30.06,ENE,68,0.0,0.0,100,0.00,,,0.00,0.00,VWS V14.01,2013-03-18 16:08:00,
2013-03-18 09:13:00,50.7,50.2,30.06,ENE,68,0.0,0.0,98,0.00,,,0.00,0.00,VWS V14.01,2013-03-18 16:13:00,
2013-03-18 09:15:00,50.9,50.1,30.06,ENE,68,0.0,0.0,97,0.00,,,0.00,0.00,VWS V14.01,2013-03-18 16:15:00,
2013-03-18 09:18:00,51.3,50.2,30.06,ENE,68,0.0,0.0,96,0.00,,,0.00,0.00,VWS V14.01,2013-03-18 16:18:00,
2013-03-18 09:23:00,51.6,51.1,30.03,ENE,68,0.0,0.0,98,0.00,,,0.00,0.00,VWS V14.01,2013-03-18 16:23:00,
2013-03-18 09:28:00,51.6,50.8,30.03,ENE,68,0.0,0.0,97,0.00,,,0.00,0.00,VWS V14.01,2013-03-18 16:28:00,
2013-03-18 09:30:00,51.6,50.8,30.03,ENE,68,0.0,0.0,97,0.00,,,0.00,0.00,VWS V14.01,2013-03-18 16:30:00,
2013-03-18 09:34:00,51.8,50.7,30.03,ENE,68,0.0,0.0,96,0.00,,,0.00,0.00,VWS V14.01,2013-03-18 16:34:00,
2013-03-18 09:39:00,52.3,51.2,30.03,NE,45,0.0,2.9,96,0.00,,,0.00,0.00,VWS V14.01,2013-03-18 16:39:00,
2013-03-18 09:44:00,52.5,51.4,30.03,East,90,0.0,2.9,96,0.00,,,0.00,0.00,VWS V14.01,2013-03-18 16:44:00,
2013-03-18 09:45:00,52.5,51.4,30.03,East,90,0.0,2.9,96,0.00,,,0.00,0.00,VWS V14.01,2013-03-18 16:45:00,
2013-03-18 09:49:00,52.9,51.5,30.03,ENE,68,0.0,2.7,95,0.00,,,0.00,0.00,VWS V14.01,2013-03-18 16:49:00,
2013-03-18 09:54:00,52.5,50.3,30.06,SE,135,0.0,3.1,92,0.00,,,0.00,0.00,VWS V14.01,2013-03-18 16:54:00,
2013-03-18 09:59:00,53.2,51.6,30.06,ENE,68,2.7,3.1,94,0.00,,,0.00,0.00,VWS V14.01,2013-03-18 16:59:00,
2013-03-18 10:00:00,53.2,51.6,30.06,ENE,68,0.0,3.1,94,0.00,,,0.00,0.00,VWS V14.01,2013-03-18 17:00:00,
2013-03-18 10:04:00,53.4,51.2,30.06,SSE,158,4.3,5.4,92,0.00,,,0.00,0.00,VWS V14.01,2013-03-18 17:04:00,
2013-03-18 10:09:00,53.4,50.9,30.06,SSE,158,1.6,7.6,91,0.00,,,0.00,0.00,VWS V14.01,2013-03-18 17:09:00,
2013-03-18 10:14:00,53.2,50.7,30.06,SSW,202,2.0,7.6,91,0.00,,,0.00,0.00,VWS V14.01,2013-03-18 17:14:00,
2013-03-18 10:15:00,53.2,50.7,30.06,South,180,0.9,7.6,91,0.00,,,0.00,0.00,VWS V14.01,2013-03-18 17:15:00,
2013-03-18 10:19:00,52.9,50.6,30.06,WSW,248,2.9,8.7,92,0.00,,,0.00,0.00,VWS V14.01,2013-03-18 17:19:00,
2013-03-18 10:25:00,52.3,50.4,30.06,SSE,158,5.6,8.7,93,0.00,,,0.00,0.00,VWS V14.01,2013-03-18 17:25:00,
2013-03-18 10:30:00,52.7,50.7,30.06,SSW,202,5.6,6.0,93,0.00,,,0.00,0.00,VWS V14.01,2013-03-18 17:30:00,
2013-03-18 10:35:00,52.9,50.6,30.06,SSE,158,3.8,7.8,92,0.00,,,0.00,0.00,VWS V14.01,2013-03-18 17:35:00,
2013-03-18 10:40:00,53.2,50.7,30.06,South,180,5.4,7.8,91,0.00,,,0.00,0.00,VWS V14.01,2013-03-18 17:40:00,
2013-03-18 10:45:00,53.4,50.9,30.06,SSE,158,4.9,4.9,91,0.00,,,0.00,0.00,VWS V14.01,2013-03-18 17:45:00,
2013-03-18 10:50:00,53.8,50.6,30.06,SE,135,5.4,6.0,89,0.00,,,0.00,0.00,VWS V14.01,2013-03-18 17:50:00,
2013-03-18 10:55:00,54.5,51.0,30.06,SSE,158,4.0,6.3,88,0.00,,,0.00,0.00,VWS V14.01,2013-03-18 17:55:00,
2013-03-18 11:00:00,55.0,51.2,30.06,South,180,1.3,6.0,87,0.00,,,0.00,0.00,VWS V14.01,2013-03-18 18:00:00,
2013-03-18 11:05:00,55.2,51.1,30.06,ESE,112,4.3,8.1,86,0.00,,,0.00,0.00,VWS V14.01,2013-03-18 18:05:00,
2013-03-18 11:11:00,55.2,51.1,30.06,SSE,158,3.1,8.5,86,0.00,,,0.00,0.00,VWS V14.01,2013-03-18 18:11:00,
2013-03-18 11:15:00,54.9,50.4,30.06,SW,225,6.0,8.5,85,0.00,,,0.00,0.00,VWS V14.01,2013-03-18 18:15:00,
2013-03-18 11:16:00,55.0,50.6,30.06,SSW,202,1.3,6.3,85,0.00,,,0.00,0.00,VWS V14.01,2013-03-18 18:16:00,
2013-03-18 11:21:00,55.0,50.6,30.06,SSW,202,6.5,7.8,85,0.00,,,0.00,0.00,VWS V14.01,2013-03-18 18:21:00,
2013-03-18 11:26:00,55.0,50.6,30.06,South,180,3.8,8.1,85,0.00,,,0.00,0.00,VWS V14.01,2013-03-18 18:26:00,
2013-03-18 11:30:00,55.0,50.3,30.06,SW,225,4.9,9.6,84,0.00,,,0.00,0.00,VWS V14.01,2013-03-18 18:30:00,
2013-03-18 11:31:00,55.0,50.3,30.06,SW,225,3.1,4.9,84,0.00,,,0.00,0.00,VWS V14.01,2013-03-18 18:31:00,
2013-03-18 11:36:00,55.9,50.9,30.06,SSE,158,3.4,7.4,83,0.00,,,0.00,0.00,VWS V14.01,2013-03-18 18:36:00,
2013-03-18 11:41:00,55.9,50.5,30.06,South,180,6.9,7.4,82,0.00,,,0.00,0.00,VWS V14.01,2013-03-18 18:41:00,
2013-03-18 11:45:00,56.1,50.7,30.06,SSE,158,3.1,7.6,82,0.00,,,0.00,0.00,VWS V14.01,2013-03-18 18:45:00,
2013-03-18 11:46:00,56.1,50.7,30.06,SSE,158,5.4,5.4,82,0.00,,,0.00,0.00,VWS V14.01,2013-03-18 18:46:00,
2013-03-18 11:51:00,56.7,50.9,30.06,SSW,202,5.6,6.3,81,0.00,,,0.00,0.00,VWS V14.01,2013-03-18 18:51:00,
2013-03-18 11:57:00,56.3,50.5,30.06,SSW,202,3.8,9.6,81,0.00,,,0.00,0.00,VWS V14.01,2013-03-18 18:57:00,
2013-03-18 12:00:00,56.3,50.2,30.06,SE,135,3.6,9.6,80,0.00,,,0.00,0.00,VWS V14.01,2013-03-18 19:00:00,
2013-03-18 12:02:00,56.5,50.4,30.06,SE,135,6.0,7.8,80,0.00,,,0.00,0.00,VWS V14.01,2013-03-18 19:02:00,
2013-03-18 12:07:00,57.4,50.2,30.06,South,180,3.8,7.8,77,0.00,,,0.00,0.00,VWS V14.01,2013-03-18 19:07:00,
2013-03-18 12:12:00,57.7,50.2,30.06,SW,225,3.6,7.8,76,0.00,,,0.00,0.00,VWS V14.01,2013-03-18 19:12:00,
2013-03-18 12:15:00,57.7,50.2,30.06,South,180,3.8,7.8,76,0.00,,,0.00,0.00,VWS V14.01,2013-03-18 19:15:00,
2013-03-18 12:17:00,58.3,50.4,30.06,SE,135,3.4,6.3,75,0.00,,,0.00,0.00,VWS V14.01,2013-03-18 19:17:00,
2013-03-18 12:22:00,59.7,51.4,30.03,SSE,158,2.5,6.3,74,0.00,,,0.00,0.00,VWS V14.01,2013-03-18 19:22:00,
2013-03-18 12:27:00,59.9,49.3,30.03,South,180,3.1,6.7,68,0.00,,,0.00,0.00,VWS V14.01,2013-03-18 19:27:00,
2013-03-18 12:30:00,59.7,50.3,30.03,SE,135,6.0,6.7,71,0.00,,,0.00,0.00,VWS V14.01,2013-03-18 19:30:00,
2013-03-18 12:32:00,60.4,50.6,30.03,SE,135,4.3,6.5,70,0.00,,,0.00,0.00,VWS V14.01,2013-03-18 19:32:00,
2013-03-18 12:37:00,60.6,50.4,30.03,East,90,1.6,6.5,69,0.00,,,0.00,0.00,VWS V14.01,2013-03-18 19:37:00,
2013-03-18 12:42:00,61.7,50.2,30.03,SE,135,1.6,6.5,66,0.00,,,0.00,0.00,VWS V14.01,2013-03-18 19:42:00,
2013-03-18 12:45:00,62.1,50.6,30.03,North,0,2.9,6.5,66,0.00,,,0.00,0.00,VWS V14.01,2013-03-18 19:45:00,
2013-03-18 12:47:00,62.4,51.3,30.03,North,0,2.7,4.0,67,0.00,,,0.00,0.00,VWS V14.01,2013-03-18 19:47:00,
2013-03-18 12:52:00,62.6,51.1,30.06,NE,45,2.5,4.7,66,0.00,,,0.00,0.00,VWS V14.01,2013-03-18 19:52:00,
2013-03-18 12:57:00,62.4,49.2,30.06,South,180,3.8,5.4,62,0.00,,,0.00,0.00,VWS V14.01,2013-03-18 19:57:00,
2013-03-18 13:00:00,61.7,49.8,30.06,ENE,68,1.6,5.4,65,0.00,,,0.00,0.00,VWS V14.01,2013-03-18 20:00:00,
2013-03-18 13:02:00,60.6,49.6,30.06,ESE,112,7.4,7.6,67,0.00,,,0.00,0.00,VWS V14.01,2013-03-18 20:02:00,
2013-03-18 13:07:00,60.1,50.3,30.03,SSE,158,5.8,10.7,70,0.00,,,0.00,0.00,VWS V14.01,2013-03-18 20:07:00,
2013-03-18 13:12:00,59.7,49.9,30.03,SE,135,6.3,10.7,70,0.00,,,0.00,0.00,VWS V14.01,2013-03-18 20:12:00,
2013-03-18 13:15:00,60.1,50.3,30.03,SSW,202,6.5,10.7,70,0.00,,,0.00,0.00,VWS V14.01,2013-03-18 20:15:00,
2013-03-18 13:17:00,60.1,49.9,30.03,SSW,202,4.3,6.5,69,0.00,,,0.00,0.00,VWS V14.01,2013-03-18 20:17:00,
2013-03-18 13:22:00,60.1,50.7,30.03,South,180,5.8,9.8,71,0.00,,,0.00,0.00,VWS V14.01,2013-03-18 20:22:00,
2013-03-18 13:28:00,60.6,50.8,30.03,South,180,3.8,9.8,70,0.00,,,0.00,0.00,VWS V14.01,2013-03-18 20:28:00,
2013-03-18 13:30:00,60.6,50.8,30.03,SSW,202,3.6,9.8,70,0.00,,,0.00,0.00,VWS V14.01,2013-03-18 20:30:00,
2013-03-18 13:33:00,60.8,50.6,30.03,South,180,2.2,7.6,69,0.00,,,0.00,0.00,VWS V14.01,2013-03-18 20:33:00,
2013-03-18 13:38:00,61.0,50.4,30.03,SSW,202,2.7,7.6,68,0.00,,,0.00,0.00,VWS V14.01,2013-03-18 20:38:00,
2013-03-18 13:43:00,60.6,50.4,30.03,SE,135,4.9,7.6,69,0.00,,,0.00,0.00,VWS V14.01,2013-03-18 20:43:00,
2013-03-18 13:45:00,61.0,50.8,30.03,SW,225,3.4,7.6,69,0.00,,,0.00,0.00,VWS V14.01,2013-03-18 20:45:00,
2013-03-18 13:48:00,61.0,50.8,30.03,SSW,202,2.5,5.4,69,0.00,,,0.00,0.00,VWS V14.01,2013-03-18 20:48:00,
2013-03-18 13:53:00,60.4,50.6,30.03,SSW,202,5.8,8.1,70,0.00,,,0.00,0.00,VWS V14.01,2013-03-18 20:53:00,
2013-03-18 13:58:00,60.3,50.5,30.03,SW,225,4.3,8.1,70,0.00,,,0.00,0.00,VWS V14.01,2013-03-18 20:58:00,
2013-03-18 14:00:00,59.9,50.1,30.03,SSE,158,4.9,8.1,70,0.00,,,0.00,0.00,VWS V14.01,2013-03-18 21:00:00,
2013-03-18 14:03:00,59.2,49.8,30.03,SSW,202,4.3,8.1,71,0.00,,,0.00,0.00,VWS V14.01,2013-03-18 21:03:00,
2013-03-18 14:08:00,58.6,50.0,30.03,SW,225,5.4,9.4,73,0.00,,,0.00,0.00,VWS V14.01,2013-03-18 21:08:00,
2013-03-18 14:14:00,58.1,49.5,30.03,South,180,7.4,10.1,73,0.00,,,0.00,0.00,VWS V14.01,2013-03-18 21:14:00,
2013-03-18 14:15:00,57.9,49.7,30.03,South,180,4.3,10.1,74,0.00,,,0.00,0.00,VWS V14.01,2013-03-18 21:15:00,
2013-03-18 14:19:00,57.7,49.5,30.03,SSE,158,5.6,10.5,74,0.00,,,0.00,0.00,VWS V14.01,2013-03-18 21:19:00,
2013-03-18 14:24:00,57.6,49.7,30.03,SSW,202,6.0,10.5,75,0.00,,,0.00,0.00,VWS V14.01,2013-03-18 21:24:00,
2013-03-18 14:29:00,57.6,49.7,30.03,SSW,202,5.8,10.5,75,0.00,,,0.00,0.00,VWS V14.01,2013-03-18 21:29:00,
2013-03-18 14:30:00,57.6,49.7,30.03,SSW,202,5.6,10.5,75,0.00,,,0.00,0.00,VWS V14.01,2013-03-18 21:30:00,
2013-03-18 14:34:00,57.2,49.7,30.03,WSW,248,7.6,10.3,76,0.00,,,0.00,0.00,VWS V14.01,2013-03-18 21:34:00,
2013-03-18 14:39:00,57.4,49.5,30.00,South,180,3.6,11.9,75,0.00,,,0.00,0.00,VWS V14.01,2013-03-18 21:39:00,
2013-03-18 14:44:00,57.4,49.9,30.00,WSW,248,6.5,11.9,76,0.00,,,0.00,0.00,VWS V14.01,2013-03-18 21:44:00,
2013-03-18 14:45:00,57.4,49.5,30.00,SSE,158,3.4,11.9,75,0.00,,,0.00,0.00,VWS V14.01,2013-03-18 21:45:00,
2013-03-18 14:49:00,57.7,49.9,30.00,SSE,158,5.6,8.7,75,0.00,,,0.00,0.00,VWS V14.01,2013-03-18 21:49:00,
2013-03-18 14:55:00,58.1,49.9,30.00,South,180,6.0,8.7,74,0.00,,,0.00,0.00,VWS V14.01,2013-03-18 21:55:00,
2013-03-18 15:00:00,58.3,50.0,30.00,SSW,202,7.4,8.7,74,0.00,,,0.00,0.00,VWS V14.01,2013-03-18 22:00:00,
2013-03-18 15:05:00,58.3,50.0,30.00,SSW,202,5.6,8.7,74,0.00,,,0.00,0.00,VWS V14.01,2013-03-18 22:05:00,
2013-03-18 15:10:00,58.3,50.4,30.00,SSW,202,4.9,9.0,75,0.00,,,0.00,0.00,VWS V14.01,2013-03-18 22:10:00,
2013-03-18 15:15:00,57.2,50.1,30.00,SSW,202,8.5,8.5,77,0.00,,,0.00,0.00,VWS V14.01,2013-03-18 22:15:00,
2013-03-18 15:20:00,57.2,50.1,30.00,SSW,202,9.6,12.1,77,0.00,,,0.00,0.00,VWS V14.01,2013-03-18 22:20:00,
2013-03-18 15:25:00,56.8,50.1,30.00,South,180,7.8,12.1,78,0.00,,,0.00,0.00,VWS V14.01,2013-03-18 22:25:00,
2013-03-18 15:30:00,57.7,50.2,30.00,SSW,202,3.6,8.1,76,0.00,,,0.00,0.00,VWS V14.01,2013-03-18 22:30:00,
2013-03-18 15:35:00,57.7,49.5,30.00,SSE,158,7.8,9.6,74,0.00,,,0.00,0.00,VWS V14.01,2013-03-18 22:35:00,
2013-03-18 15:40:00,57.4,49.5,30.00,South,180,9.6,11.2,75,0.00,,,0.00,0.00,VWS V14.01,2013-03-18 22:40:00,
2013-03-18 15:45:00,57.9,50.0,30.00,South,180,8.1,11.2,75,0.00,,,0.00,0.00,VWS V14.01,2013-03-18 22:45:00,
2013-03-18 15:46:00,57.9,50.0,30.00,South,180,9.2,9.2,75,0.00,,,0.00,0.00,VWS V14.01,2013-03-18 22:46:00,
2013-03-18 15:51:00,58.1,50.2,30.00,South,180,4.0,10.1,75,0.00,,,0.00,0.00,VWS V14.01,2013-03-18 22:51:00,
2013-03-18 15:57:00,57.9,50.0,30.00,South,180,7.6,13.2,75,0.00,,,0.00,0.00,VWS V14.01,2013-03-18 22:57:00,
2013-03-18 16:00:00,57.7,50.2,30.00,SSW,202,13.2,13.2,76,0.00,,,0.00,0.00,VWS V14.01,2013-03-18 23:00:00,
2013-03-18 16:02:00,57.9,50.0,30.00,SSE,158,10.1,13.2,75,0.00,,,0.00,0.00,VWS V14.01,2013-03-18 23:02:00,
2013-03-18 16:07:00,57.7,49.9,30.00,SSW,202,6.0,13.2,75,0.00,,,0.00,0.00,VWS V14.01,2013-03-18 23:07:00,
2013-03-18 16:12:00,58.1,49.9,30.00,South,180,8.1,13.2,74,0.00,,,0.00,0.00,VWS V14.01,2013-03-18 23:12:00,
2013-03-18 16:15:00,58.1,49.9,30.00,South,180,5.6,13.2,74,0.00,,,0.00,0.00,VWS V14.01,2013-03-18 23:15:00,
2013-03-18 16:17:00,58.1,49.5,30.00,SSE,158,5.6,10.5,73,0.00,,,0.00,0.00,VWS V14.01,2013-03-18 23:17:00,
2013-03-18 16:22:00,57.9,49.0,29.97,South,180,6.0,11.0,72,0.00,,,0.00,0.00,VWS V14.01,2013-03-18 23:22:00,
2013-03-18 16:27:00,57.9,49.0,29.97,SSE,158,7.8,11.0,72,0.00,,,0.00,0.00,VWS V14.01,2013-03-18 23:27:00,
2013-03-18 16:30:00,57.7,48.0,29.97,SSE,158,6.5,11.0,70,0.00,,,0.00,0.00,VWS V14.01,2013-03-18 23:30:00,
2013-03-18 16:32:00,57.2,46.8,29.97,SSW,202,7.8,13.6,68,0.00,,,0.00,0.00,VWS V14.01,2013-03-18 23:32:00,
2013-03-18 16:38:00,56.8,46.8,30.00,SSW,202,10.3,14.1,69,0.00,,,0.00,0.00,VWS V14.01,2013-03-18 23:38:00,
2013-03-18 16:43:00,57.0,45.0,30.00,SE,135,4.9,14.1,64,0.00,,,0.00,0.00,VWS V14.01,2013-03-18 23:43:00,
2013-03-18 16:45:00,57.2,45.2,30.00,SSW,202,5.6,14.1,64,0.00,,,0.00,0.00,VWS V14.01,2013-03-18 23:45:00,
2013-03-18 16:48:00,57.6,44.7,30.00,South,180,3.6,11.4,62,0.00,,,0.00,0.00,VWS V14.01,2013-03-18 23:48:00,
2013-03-18 16:53:00,57.6,44.7,30.00,SW,225,9.8,14.5,62,0.00,,,0.00,0.00,VWS V14.01,2013-03-18 23:53:00,
2013-03-18 16:58:00,57.6,45.9,30.00,South,180,3.1,14.5,65,0.00,,,0.00,0.00,VWS V14.01,2013-03-18 23:58:00,
2013-03-18 17:00:00,57.9,46.2,30.00,South,180,3.8,14.5,65,0.00,,,0.00,0.00,VWS V14.01,2013-03-19 00:00:00,
2013-03-18 17:03:00,57.9,46.6,30.00,SSW,202,9.8,9.8,66,0.00,,,0.00,0.00,VWS V14.01,2013-03-19 00:03:00,
2013-03-18 17:08:00,57.9,45.4,30.00,NW,315,5.4,11.0,63,0.00,,,0.00,0.00,VWS V14.01,2013-03-19 00:08:00,
2013-03-18 17:14:00,57.7,45.7,30.00,SSW,202,4.0,11.0,64,0.00,,,0.00,0.00,VWS V14.01,2013-03-19 00:14:00,
2013-03-18 17:15:00,57.6,45.1,30.00,SSE,158,7.4,12.3,63,0.00,,,0.00,0.00,VWS V14.01,2013-03-19 00:15:00,
2013-03-18 17:19:00,57.4,44.9,30.00,SSW,202,9.8,14.5,63,0.00,,,0.00,0.00,VWS V14.01,2013-03-19 00:19:00,
2013-03-18 17:24:00,57.2,44.3,30.00,SSE,158,4.3,14.5,62,0.00,,,0.00,0.00,VWS V14.01,2013-03-19 00:24:00,
2013-03-18 17:29:00,57.2,44.7,30.00,WSW,248,5.8,14.5,63,0.00,,,0.00,0.00,VWS V14.01,2013-03-19 00:29:00,
2013-03-18 17:30:00,56.8,44.0,30.00,SSW,202,6.3,14.5,62,0.00,,,0.00,0.00,VWS V14.01,2013-03-19 00:30:00,
2013-03-18 17:34:00,56.7,44.2,30.00,SSW,202,10.3,11.0,63,0.00,,,0.00,0.00,VWS V14.01,2013-03-19 00:34:00,
2013-03-18 17:39:00,56.5,44.0,29.97,South,180,15.2,15.4,63,0.00,,,0.00,0.00,VWS V14.01,2013-03-19 00:39:00,
2013-03-18 17:44:00,56.3,44.3,29.97,WSW,248,4.3,15.4,64,0.00,,,0.00,0.00,VWS V14.01,2013-03-19 00:44:00,
2013-03-18 17:45:00,56.1,44.1,29.97,South,180,11.2,15.4,64,0.00,,,0.00,0.00,VWS V14.01,2013-03-19 00:45:00,
2013-03-18 17:49:00,55.9,44.0,29.97,SSW,202,10.3,13.9,64,0.00,,,0.00,0.00,VWS V14.01,2013-03-19 00:49:00,
2013-03-18 17:54:00,55.8,44.2,30.00,South,180,13.6,18.6,65,0.00,,,0.00,0.00,VWS V14.01,2013-03-19 00:54:00,
2013-03-18 17:59:00,55.4,43.4,30.00,SSW,202,7.4,18.8,64,0.00,,,0.00,0.00,VWS V14.01,2013-03-19 00:59:00,
2013-03-18 18:00:00,55.4,43.4,30.00,SSW,202,8.1,18.8,64,0.00,,,0.00,0.00,VWS V14.01,2013-03-19 01:00:00,
2013-03-18 18:04:00,55.6,44.0,30.00,SSW,202,11.2,13.4,65,0.00,,,0.00,0.00,VWS V14.01,2013-03-19 01:04:00,
2013-03-18 18:09:00,55.6,44.4,30.00,South,180,14.5,14.5,66,0.00,,,0.00,0.00,VWS V14.01,2013-03-19 01:09:00,
2013-03-18 18:14:00,55.4,44.6,30.00,South,180,9.2,14.5,67,0.00,,,0.00,0.00,VWS V14.01,2013-03-19 01:14:00,
2013-03-18 18:15:00,55.4,44.6,30.00,SSW,202,16.6,16.6,67,0.00,,,0.00,0.00,VWS V14.01,2013-03-19 01:15:00,
2013-03-18 18:20:00,55.0,45.8,30.00,South,180,15.2,17.7,71,0.00,,,0.00,0.00,VWS V14.01,2013-03-19 01:20:00,
2013-03-18 18:25:00,54.7,47.6,30.00,SW,225,12.5,17.7,77,0.00,,,0.00,0.00,VWS V14.01,2013-03-19 01:25:00,
2013-03-18 18:30:00,54.7,46.9,30.00,South,180,5.6,17.7,75,0.00,,,0.00,0.00,VWS V14.01,2013-03-19 01:30:00,
2013-03-18 18:35:00,54.5,46.0,30.00,SW,225,8.1,13.2,73,0.00,,,0.00,0.00,VWS V14.01,2013-03-19 01:35:00,
2013-03-18 18:40:00,54.3,46.6,30.00,WSW,248,7.6,15.4,75,0.00,,,0.00,0.00,VWS V14.01,2013-03-19 01:40:00,
2013-03-18 18:45:00,54.0,47.3,30.00,SSW,202,12.3,13.0,78,0.00,,,0.00,0.00,VWS V14.01,2013-03-19 01:45:00,
2013-03-18 18:50:00,53.6,47.9,30.00,SSE,158,14.3,17.2,81,0.00,,,0.00,0.00,VWS V14.01,2013-03-19 01:50:00,
2013-03-18 18:55:00,53.1,49.3,30.03,SSW,202,10.3,17.2,87,0.00,,,0.00,0.00,VWS V14.01,2013-03-19 01:55:00,
2013-03-18 19:00:00,52.5,49.7,30.03,SW,225,14.3,16.8,90,0.00,,,0.00,0.00,VWS V14.01,2013-03-19 02:00:00,
2013-03-18 19:05:00,52.2,49.3,30.03,South,180,9.6,17.2,90,0.00,,,0.00,0.00,VWS V14.01,2013-03-19 02:05:00,
2013-03-18 19:11:00,52.0,48.5,30.03,SSE,158,10.5,19.5,88,0.00,,,0.00,0.00,VWS V14.01,2013-03-19 02:11:00,
2013-03-18 19:15:00,51.8,48.7,30.03,South,180,12.3,19.5,89,0.00,,,0.00,0.00,VWS V14.01,2013-03-19 02:15:00,
2013-03-18 19:16:00,51.8,48.7,30.03,SSW,202,13.0,15.2,89,0.00,,,0.00,0.00,VWS V14.01,2013-03-19 02:16:00,
2013-03-18 19:21:00,51.6,49.1,30.03,SSW,202,8.1,15.2,91,0.00,,,0.00,0.00,VWS V14.01,2013-03-19 02:21:00,
2013-03-18 19:26:00,51.4,48.9,30.03,South,180,12.8,19.0,91,0.00,,,0.00,0.00,VWS V14.01,2013-03-19 02:26:00,
2013-03-18 19:30:00,51.4,48.9,30.03,SSW,202,7.8,19.0,91,0.00,,,0.00,0.00,VWS V14.01,2013-03-19 02:30:00,
2013-03-18 19:31:00,51.3,48.7,30.03,SSW,202,13.0,17.7,91,0.00,,,0.00,0.00,VWS V14.01,2013-03-19 02:31:00,
2013-03-18 19:36:00,51.1,48.8,30.03,South,180,10.7,19.2,92,0.00,,,0.00,0.00,VWS V14.01,2013-03-19 02:36:00,
2013-03-18 19:42:00,51.1,48.8,30.06,SSE,158,12.3,19.2,92,0.00,,,0.00,0.00,VWS V14.01,2013-03-19 02:42:00,
2013-03-18 19:45:00,50.9,49.0,30.06,SSW,202,11.9,19.2,93,0.00,,,0.00,0.00,VWS V14.01,2013-03-19 02:45:00,
2013-03-18 19:47:00,50.9,49.0,30.06,South,180,15.7,15.7,93,0.00,,,0.00,0.00,VWS V14.01,2013-03-19 02:47:00,
2013-03-18 19:52:00,50.7,49.1,30.06,SW,225,14.8,15.7,94,0.00,,,0.00,0.00,VWS V14.01,2013-03-19 02:52:00,
2013-03-18 19:57:00,50.7,49.1,30.06,South,180,17.0,20.4,94,0.00,,,0.00,0.00,VWS V14.01,2013-03-19 02:57:00,
2013-03-18 20:00:00,50.7,49.3,30.06,SSW,202,16.6,20.4,95,0.00,,,0.00,0.00,VWS V14.01,2013-03-19 03:00:00,
2013-03-18 20:02:00,50.5,49.2,30.06,SSE,158,12.5,17.0,95,0.00,,,0.00,0.00,VWS V14.01,2013-03-19 03:02:00,
2013-03-18 20:07:00,50.5,49.5,30.06,SSW,202,10.5,22.8,96,0.00,,,0.00,0.00,VWS V14.01,2013-03-19 03:07:00,
2013-03-18 20:12:00,50.5,49.5,30.06,SE,135,14.5,22.8,96,0.00,,,0.00,0.00,VWS V14.01,2013-03-19 03:12:00,
2013-03-18 20:15:00,50.5,49.4,30.06,SE,135,10.1,22.8,96,0.00,,,0.00,0.00,VWS V14.01,2013-03-19 03:15:00,
2013-03-18 20:17:00,50.5,49.5,30.06,South,180,14.5,21.9,96,0.00,,,0.00,0.00,VWS V14.01,2013-03-19 03:17:00,
2013-03-18 20:22:00,50.5,49.7,30.06,SSE,158,12.5,22.2,97,0.00,,,0.00,0.00,VWS V14.01,2013-03-19 03:22:00,
2013-03-18 20:28:00,50.5,49.5,30.06,SSE,158,5.8,22.2,96,0.00,,,0.00,0.00,VWS V14.01,2013-03-19 03:28:00,
2013-03-18 20:30:00,50.5,49.4,30.06,South,180,8.1,22.2,96,0.00,,,0.00,0.00,VWS V14.01,2013-03-19 03:30:00,
2013-03-18 20:34:00,50.5,49.5,30.06,SW,225,13.0,16.8,96,0.00,,,0.00,0.00,VWS V14.01,2013-03-19 03:34:00,
2013-03-18 20:39:00,50.5,49.5,30.06,SSW,202,18.8,18.8,96,0.00,,,0.00,0.00,VWS V14.01,2013-03-19 03:39:00,
2013-03-18 20:44:00,50.5,49.5,30.06,South,180,11.2,18.8,96,0.00,,,0.00,0.00,VWS V14.01,2013-03-19 03:44:00,
2013-03-18 20:45:00,50.5,49.4,30.06,SSW,202,8.5,18.8,96,0.00,,,0.00,0.00,VWS V14.01,2013-03-19 03:45:00,
2013-03-18 20:49:00,50.5,49.2,30.06,SSW,202,5.6,14.1,95,0.00,,,0.00,0.00,VWS V14.01,2013-03-19 03:49:00,
2013-03-18 20:54:00,50.7,49.1,30.06,SE,135,11.2,20.1,94,0.00,,,0.00,0.00,VWS V14.01,2013-03-19 03:54:00,
2013-03-18 20:59:00,51.1,49.1,30.06,SSE,158,16.8,20.1,93,0.00,,,0.00,0.00,VWS V14.01,2013-03-19 03:59:00,
2013-03-18 21:00:00,51.1,49.1,30.06,SSE,158,13.0,20.1,93,0.00,,,0.00,0.00,VWS V14.01,2013-03-19 04:00:00,
2013-03-18 21:02:00,50.9,49.0,30.06,SSE,158,7.6,13.0,93,0.00,,,0.00,0.00,VWS V14.01,2013-03-19 04:02:00,
2013-03-18 21:05:00,51.1,49.1,30.06,South,180,11.0,15.9,93,0.00,,,0.00,0.00,VWS V14.01,2013-03-19 04:05:00,
2013-03-18 21:11:00,51.1,49.4,30.06,SSE,158,10.1,17.0,94,0.00,,,0.00,0.00,VWS V14.01,2013-03-19 04:11:00,
2013-03-18 21:15:00,51.1,49.4,30.06,SSW,202,17.7,17.7,94,0.00,,,0.00,0.00,VWS V14.01,2013-03-19 04:15:00,
2013-03-18 21:16:00,50.9,49.2,30.06,SW,225,8.1,17.7,94,0.00,,,0.00,0.00,VWS V14.01,2013-03-19 04:16:00,
2013-03-18 21:21:00,51.1,49.4,30.06,SW,225,11.2,17.7,94,0.00,,,0.00,0.00,VWS V14.01,2013-03-19 04:21:00,
2013-03-18 21:26:00,50.9,49.5,30.06,SSW,202,7.2,17.7,95,0.00,,,0.00,0.00,VWS V14.01,2013-03-19 04:26:00,
2013-03-18 21:30:00,50.9,49.5,30.06,WSW,248,3.4,17.7,95,0.00,,,0.00,0.00,VWS V14.01,2013-03-19 04:30:00,
2013-03-18 21:31:00,50.9,49.5,30.06,SSW,202,10.1,10.1,95,0.00,,,0.00,0.00,VWS V14.01,2013-03-19 04:31:00,
2013-03-18 21:36:00,50.9,49.2,30.06,SSW,202,6.0,12.5,94,0.00,,,0.00,0.00,VWS V14.01,2013-03-19 04:36:00,
2013-03-18 21:41:00,51.1,49.1,30.06,South,180,8.5,13.2,93,0.00,,,0.00,0.00,VWS V14.01,2013-03-19 04:41:00,
2013-03-18 21:45:00,51.1,49.1,30.06,South,180,7.8,13.2,93,0.00,,,0.00,0.00,VWS V14.01,2013-03-19 04:45:00,
2013-03-18 21:46:00,51.1,49.1,30.06,SSW,202,7.6,10.3,93,0.00,,,0.00,0.00,VWS V14.01,2013-03-19 04:46:00,
2013-03-18 21:51:00,51.3,48.7,30.06,SSE,158,3.8,10.3,91,0.00,,,0.00,0.00,VWS V14.01,2013-03-19 04:51:00,
2013-03-18 21:56:00,51.1,49.1,30.09,SW,225,1.6,10.3,93,0.00,,,0.00,0.00,VWS V14.01,2013-03-19 04:56:00,
2013-03-18 22:00:00,50.9,49.2,30.09,SSW,202,1.6,10.3,94,0.00,,,0.00,0.00,VWS V14.01,2013-03-19 05:00:00,
2013-03-18 22:01:00,50.9,49.2,30.09,South,180,5.4,6.3,94,0.00,,,0.00,0.00,VWS V14.01,2013-03-19 05:01:00,
2013-03-18 22:06:00,50.9,49.5,30.09,SSE,158,3.1,8.5,95,0.00,,,0.00,0.00,VWS V14.01,2013-03-19 05:06:00,
2013-03-18 22:11:00,50.9,49.5,30.06,SSW,202,6.0,9.0,95,0.00,,,0.00,0.00,VWS V14.01,2013-03-19 05:11:00,
2013-03-18 22:15:00,50.9,49.5,30.06,SSW,202,5.6,9.0,95,0.00,,,0.00,0.00,VWS V14.01,2013-03-19 05:15:00,
2013-03-18 22:16:00,50.9,49.5,30.06,SSE,158,2.9,7.6,95,0.00,,,0.00,0.00,VWS V14.01,2013-03-19 05:16:00,
2013-03-18 22:21:00,50.9,49.5,30.06,South,180,6.3,11.0,95,0.00,,,0.00,0.00,VWS V14.01,2013-03-19 05:21:00,
2013-03-18 22:26:00,50.9,49.2,30.06,South,180,6.5,11.0,94,0.00,,,0.00,0.00,VWS V14.01,2013-03-19 05:26:00,
2013-03-18 22:30:00,51.1,49.1,30.06,SSW,202,7.8,11.0,93,0.00,,,0.00,0.00,VWS V14.01,2013-03-19 05:30:00,
2013-03-18 22:31:00,51.1,49.1,30.06,South,180,6.0,7.8,93,0.00,,,0.00,0.00,VWS V14.01,2013-03-19 05:31:00,
2013-03-18 22:36:00,51.1,49.4,30.06,South,180,6.0,7.8,94,0.00,,,0.00,0.00,VWS V14.01,2013-03-19 05:36:00,
2013-03-18 22:41:00,51.1,49.4,30.09,SSW,202,3.6,8.1,94,0.00,,,0.00,0.00,VWS V14.01,2013-03-19 05:41:00,
2013-03-18 22:45:00,51.1,49.4,30.09,SW,225,6.0,8.5,94,0.00,,,0.00,0.00,VWS V14.01,2013-03-19 05:45:00,
2013-03-18 22:46:00,51.1,49.4,30.09,SSW,202,5.8,7.6,94,0.00,,,0.00,0.00,VWS V14.01,2013-03-19 05:46:00,
2013-03-18 22:51:00,50.9,49.2,30.09,South,180,13.2,13.2,94,0.00,,,0.00,0.00,VWS V14.01,2013-03-19 05:51:00,
2013-03-18 22:56:00,50.9,49.2,30.09,South,180,6.3,13.2,94,0.00,,,0.00,0.00,VWS V14.01,2013-03-19 05:56:00,
2013-03-18 23:00:00,50.9,49.0,30.09,SSE,158,3.4,13.2,93,0.00,,,0.00,0.00,VWS V14.01,2013-03-19 06:00:00,
2013-03-18 23:01:00,51.1,48.8,30.09,SW,225,6.3,7.2,92,0.00,,,0.00,0.00,VWS V14.01,2013-03-19 06:01:00,
2013-03-18 23:06:00,50.9,49.0,30.09,SSW,202,3.8,7.2,93,0.00,,,0.00,0.00,VWS V14.01,2013-03-19 06:06:00,
2013-03-18 23:11:00,50.7,48.5,30.09,SW,225,0.0,7.2,92,0.00,,,0.00,0.00,VWS V14.01,2013-03-19 06:11:00,
2013-03-18 23:15:00,50.5,48.9,30.09,SW,225,0.0,7.2,94,0.00,,,0.00,0.00,VWS V14.01,2013-03-19 06:15:00,
2013-03-18 23:16:00,50.4,48.4,30.09,SSW,202,2.7,3.4,93,0.00,,,0.00,0.00,VWS V14.01,2013-03-19 06:16:00,
2013-03-18 23:21:00,50.0,48.3,30.09,SSW,202,2.9,3.4,94,0.00,,,0.00,0.00,VWS V14.01,2013-03-19 06:21:00,
2013-03-18 23:26:00,49.5,47.5,30.06,SSW,202,0.0,3.8,93,0.00,,,0.00,0.00,VWS V14.01,2013-03-19 06:26:00,
2013-03-18 23:30:00,49.3,47.3,30.06,SSW,202,2.9,4.3,93,0.00,,,0.00,0.00,VWS V14.01,2013-03-19 06:30:00,
2013-03-18 23:31:00,49.1,46.9,30.06,SSW,202,2.7,4.3,92,0.00,,,0.00,0.00,VWS V14.01,2013-03-19 06:31:00,
2013-03-18 23:36:00,49.1,46.0,30.06,SSW,202,3.1,4.9,89,0.00,,,0.00,0.00,VWS V14.01,2013-03-19 06:36:00,
2013-03-18 23:42:00,48.9,45.5,30.06,SSW,202,2.7,4.9,88,0.00,,,0.00,0.00,VWS V14.01,2013-03-19 06:42:00,
2013-03-18 23:45:00,48.9,45.2,30.06,South,180,2.9,4.9,87,0.00,,,0.00,0.00,VWS V14.01,2013-03-19 06:45:00,
2013-03-18 23:47:00,48.9,45.8,30.06,SSW,202,2.0,2.9,89,0.00,,,0.00,0.00,VWS V14.01,2013-03-19 06:47:00,
2013-03-18 23:52:00,48.6,45.8,30.06,SSW,202,2.0,2.9,90,0.00,,,0.00,0.00,VWS V14.01,2013-03-19 06:52:00,
2013-03-18 23:57:00,48.2,45.4,30.06,SSW,202,2.7,2.9,90,0.00,,,0.00,0.00,VWS V14.01,2013-03-19 06:57:00,